sensor_id;sensor_type;location;lat;lon;timestamp;P1;durP1;ratioP1;P2;durP2;ratioP2
37157;SDS011;23050;51.776;22.638;2023-02-05T00:01:17;17.23;;;7.85;;
37157;SDS011;23050;51.776;22.638;2023-02-05T00:03:43;19.58;;;8.52;;
37157;SDS011;23050;51.776;22.638;2023-02-05T00:06:09;13.40;;;5.72;;
37157;SDS011;23050;51.776;22.638;2023-02-05T00:08:34;10.82;;;5.88;;
37157;SDS011;23050;51.776;22.638;2023-02-05T00:11:00;16.60;;;5.65;;
37157;SDS011;23050;51.776;22.638;2023-02-05T00:13:33;9.57;;;5.32;;
37157;SDS011;23050;51.776;22.638;2023-02-05T00:18:38;16.38;;;6.68;;
37157;SDS011;23050;51.776;22.638;2023-02-05T00:21:04;15.43;;;6.80;;
37157;SDS011;23050;51.776;22.638;2023-02-05T00:23:31;16.35;;;7.05;;
37157;SDS011;23050;51.776;22.638;2023-02-05T00:25:57;30.83;;;11.77;;
37157;SDS011;23050;51.776;22.638;2023-02-05T00:28:23;23.02;;;9.52;;
37157;SDS011;23050;51.776;22.638;2023-02-05T00:30:48;27.42;;;11.98;;
37157;SDS011;23050;51.776;22.638;2023-02-05T00:33:14;19.88;;;8.27;;
37157;SDS011;23050;51.776;22.638;2023-02-05T00:35:41;19.05;;;9.18;;
37157;SDS011;23050;51.776;22.638;2023-02-05T00:38:07;20.98;;;9.60;;
37157;SDS011;23050;51.776;22.638;2023-02-05T00:40:33;11.60;;;5.72;;
37157;SDS011;23050;51.776;22.638;2023-02-05T00:42:58;15.82;;;6.38;;
37157;SDS011;23050;51.776;22.638;2023-02-05T00:45:24;22.65;;;10.05;;
37157;SDS011;23050;51.776;22.638;2023-02-05T00:47:49;21.67;;;8.90;;
37157;SDS011;23050;51.776;22.638;2023-02-05T00:50:15;14.13;;;6.55;;
37157;SDS011;23050;51.776;22.638;2023-02-05T00:52:41;12.57;;;6.20;;
37157;SDS011;23050;51.776;22.638;2023-02-05T00:55:06;13.52;;;5.85;;
37157;SDS011;23050;51.776;22.638;2023-02-05T00:57:32;16.70;;;8.45;;
37157;SDS011;23050;51.776;22.638;2023-02-05T00:59:58;30.95;;;12.50;;
37157;SDS011;23050;51.776;22.638;2023-02-05T01:02:23;21.55;;;8.38;;
37157;SDS011;23050;51.776;22.638;2023-02-05T01:04:52;23.90;;;10.13;;
37157;SDS011;23050;51.776;22.638;2023-02-05T01:07:18;43.40;;;15.07;;
37157;SDS011;23050;51.776;22.638;2023-02-05T01:09:44;50.65;;;16.23;;
37157;SDS011;23050;51.776;22.638;2023-02-05T01:12:10;50.00;;;17.40;;
37157;SDS011;23050;51.776;22.638;2023-02-05T01:14:38;55.15;;;18.13;;
37157;SDS011;23050;51.776;22.638;2023-02-05T01:17:04;48.85;;;16.50;;
37157;SDS011;23050;51.776;22.638;2023-02-05T01:19:32;72.82;;;23.10;;
37157;SDS011;23050;51.776;22.638;2023-02-05T01:21:58;62.08;;;20.98;;
37157;SDS011;23050;51.776;22.638;2023-02-05T01:24:24;27.38;;;10.43;;
37157;SDS011;23050;51.776;22.638;2023-02-05T01:26:50;17.20;;;7.05;;
37157;SDS011;23050;51.776;22.638;2023-02-05T01:29:17;13.65;;;6.10;;
37157;SDS011;23050;51.776;22.638;2023-02-05T01:31:43;15.00;;;6.40;;
37157;SDS011;23050;51.776;22.638;2023-02-05T01:34:09;15.98;;;6.90;;
37157;SDS011;23050;51.776;22.638;2023-02-05T01:36:34;20.23;;;8.52;;
37157;SDS011;23050;51.776;22.638;2023-02-05T01:39:00;11.65;;;5.57;;
37157;SDS011;23050;51.776;22.638;2023-02-05T01:41:25;10.95;;;5.13;;
37157;SDS011;23050;51.776;22.638;2023-02-05T01:44:04;11.45;;;4.95;;
37157;SDS011;23050;51.776;22.638;2023-02-05T01:46:35;16.60;;;7.05;;
37157;SDS011;23050;51.776;22.638;2023-02-05T01:49:02;22.35;;;8.27;;
37157;SDS011;23050;51.776;22.638;2023-02-05T01:51:30;17.13;;;6.35;;
37157;SDS011;23050;51.776;22.638;2023-02-05T01:53:59;16.88;;;7.20;;
37157;SDS011;23050;51.776;22.638;2023-02-05T01:56:30;18.58;;;8.30;;
37157;SDS011;23050;51.776;22.638;2023-02-05T01:59:07;24.00;;;9.55;;
37157;SDS011;23050;51.776;22.638;2023-02-05T02:01:37;25.35;;;10.88;;
37157;SDS011;23050;51.776;22.638;2023-02-05T02:04:04;19.35;;;8.70;;
37157;SDS011;23050;51.776;22.638;2023-02-05T02:06:34;21.80;;;8.63;;
37157;SDS011;23050;51.776;22.638;2023-02-05T02:09:01;11.75;;;5.57;;
37157;SDS011;23050;51.776;22.638;2023-02-05T02:11:29;11.77;;;4.80;;
37157;SDS011;23050;51.776;22.638;2023-02-05T02:13:57;19.33;;;7.57;;
37157;SDS011;23050;51.776;22.638;2023-02-05T02:16:26;7.22;;;3.58;;
37157;SDS011;23050;51.776;22.638;2023-02-05T02:18:52;7.63;;;3.72;;
37157;SDS011;23050;51.776;22.638;2023-02-05T02:21:28;7.43;;;3.20;;
37157;SDS011;23050;51.776;22.638;2023-02-05T02:35:41;6.90;;;3.50;;
37157;SDS011;23050;51.776;22.638;2023-02-05T02:38:26;6.88;;;3.45;;
37157;SDS011;23050;51.776;22.638;2023-02-05T02:41:00;6.90;;;3.17;;
37157;SDS011;23050;51.776;22.638;2023-02-05T02:46:03;7.28;;;3.40;;
37157;SDS011;23050;51.776;22.638;2023-02-05T02:48:34;8.10;;;3.15;;
37157;SDS011;23050;51.776;22.638;2023-02-05T02:51:02;6.70;;;3.63;;
37157;SDS011;23050;51.776;22.638;2023-02-05T02:53:38;7.43;;;3.28;;
37157;SDS011;23050;51.776;22.638;2023-02-05T02:56:08;6.70;;;2.70;;
37157;SDS011;23050;51.776;22.638;2023-02-05T02:58:41;4.85;;;2.63;;
37157;SDS011;23050;51.776;22.638;2023-02-05T03:01:16;6.57;;;3.45;;
37157;SDS011;23050;51.776;22.638;2023-02-05T03:03:48;6.10;;;3.42;;
37157;SDS011;23050;51.776;22.638;2023-02-05T03:06:17;7.78;;;3.25;;
37157;SDS011;23050;51.776;22.638;2023-02-05T03:08:46;7.50;;;2.95;;
37157;SDS011;23050;51.776;22.638;2023-02-05T03:11:16;7.25;;;3.40;;
37157;SDS011;23050;51.776;22.638;2023-02-05T03:13:42;6.03;;;3.45;;
37157;SDS011;23050;51.776;22.638;2023-02-05T03:16:09;7.45;;;3.47;;
37157;SDS011;23050;51.776;22.638;2023-02-05T03:18:36;6.65;;;3.40;;
37157;SDS011;23050;51.776;22.638;2023-02-05T03:21:03;6.82;;;3.35;;
37157;SDS011;23050;51.776;22.638;2023-02-05T03:23:33;7.50;;;3.42;;
37157;SDS011;23050;51.776;22.638;2023-02-05T03:25:58;7.95;;;3.85;;
37157;SDS011;23050;51.776;22.638;2023-02-05T03:28:24;8.02;;;3.78;;
37157;SDS011;23050;51.776;22.638;2023-02-05T03:33:34;7.35;;;3.40;;
37157;SDS011;23050;51.776;22.638;2023-02-05T03:36:24;7.63;;;3.28;;
37157;SDS011;23050;51.776;22.638;2023-02-05T03:52:58;43.88;;;15.40;;
37157;SDS011;23050;51.776;22.638;2023-02-05T03:55:47;22.42;;;10.85;;
37157;SDS011;23050;51.776;22.638;2023-02-05T03:58:18;22.10;;;8.45;;
37157;SDS011;23050;51.776;22.638;2023-02-05T04:00:49;16.63;;;8.05;;
37157;SDS011;23050;51.776;22.638;2023-02-05T04:03:15;28.10;;;12.65;;
37157;SDS011;23050;51.776;22.638;2023-02-05T04:05:41;16.83;;;8.38;;
37157;SDS011;23050;51.776;22.638;2023-02-05T04:08:07;21.60;;;9.93;;
37157;SDS011;23050;51.776;22.638;2023-02-05T04:10:32;21.95;;;10.30;;
37157;SDS011;23050;51.776;22.638;2023-02-05T04:12:58;27.58;;;12.13;;
37157;SDS011;23050;51.776;22.638;2023-02-05T04:15:23;46.47;;;17.27;;
37157;SDS011;23050;51.776;22.638;2023-02-05T04:17:49;42.92;;;14.60;;
37157;SDS011;23050;51.776;22.638;2023-02-05T04:20:14;48.80;;;18.40;;
37157;SDS011;23050;51.776;22.638;2023-02-05T04:22:40;29.80;;;9.38;;
37157;SDS011;23050;51.776;22.638;2023-02-05T04:25:05;28.73;;;11.73;;
37157;SDS011;23050;51.776;22.638;2023-02-05T04:27:32;34.30;;;13.45;;
37157;SDS011;23050;51.776;22.638;2023-02-05T04:29:57;29.02;;;10.20;;
37157;SDS011;23050;51.776;22.638;2023-02-05T04:32:23;17.27;;;8.07;;
37157;SDS011;23050;51.776;22.638;2023-02-05T04:34:48;14.63;;;7.30;;
37157;SDS011;23050;51.776;22.638;2023-02-05T04:37:14;17.17;;;9.05;;
37157;SDS011;23050;51.776;22.638;2023-02-05T04:39:39;16.25;;;7.68;;
37157;SDS011;23050;51.776;22.638;2023-02-05T04:42:05;14.50;;;6.85;;
37157;SDS011;23050;51.776;22.638;2023-02-05T04:44:31;12.23;;;6.22;;
37157;SDS011;23050;51.776;22.638;2023-02-05T04:46:56;14.85;;;8.35;;
37157;SDS011;23050;51.776;22.638;2023-02-05T04:49:22;9.98;;;5.85;;
37157;SDS011;23050;51.776;22.638;2023-02-05T04:51:47;14.13;;;7.07;;
37157;SDS011;23050;51.776;22.638;2023-02-05T04:54:13;13.43;;;6.00;;
37157;SDS011;23050;51.776;22.638;2023-02-05T04:56:38;14.00;;;6.30;;
37157;SDS011;23050;51.776;22.638;2023-02-05T04:59:04;12.15;;;6.05;;
37157;SDS011;23050;51.776;22.638;2023-02-05T05:01:29;13.18;;;6.95;;
37157;SDS011;23050;51.776;22.638;2023-02-05T05:03:55;28.73;;;12.75;;
37157;SDS011;23050;51.776;22.638;2023-02-05T05:06:21;33.35;;;13.38;;
37157;SDS011;23050;51.776;22.638;2023-02-05T05:08:46;33.22;;;13.73;;
37157;SDS011;23050;51.776;22.638;2023-02-05T05:11:14;29.27;;;13.52;;
37157;SDS011;23050;51.776;22.638;2023-02-05T05:13:41;33.70;;;15.55;;
37157;SDS011;23050;51.776;22.638;2023-02-05T05:16:08;13.77;;;7.18;;
37157;SDS011;23050;51.776;22.638;2023-02-05T05:18:35;12.13;;;6.72;;
37157;SDS011;23050;51.776;22.638;2023-02-05T05:21:01;13.88;;;6.75;;
37157;SDS011;23050;51.776;22.638;2023-02-05T05:23:27;17.63;;;8.05;;
37157;SDS011;23050;51.776;22.638;2023-02-05T05:25:52;19.30;;;8.02;;
37157;SDS011;23050;51.776;22.638;2023-02-05T05:28:18;11.77;;;5.63;;
37157;SDS011;23050;51.776;22.638;2023-02-05T05:30:44;9.98;;;5.78;;
37157;SDS011;23050;51.776;22.638;2023-02-05T05:33:10;11.48;;;5.82;;
37157;SDS011;23050;51.776;22.638;2023-02-05T05:35:36;23.58;;;8.85;;
37157;SDS011;23050;51.776;22.638;2023-02-05T05:38:03;22.15;;;8.90;;
37157;SDS011;23050;51.776;22.638;2023-02-05T05:40:29;18.05;;;7.22;;
37157;SDS011;23050;51.776;22.638;2023-02-05T05:43:17;19.95;;;7.40;;
37157;SDS011;23050;51.776;22.638;2023-02-05T05:46:03;24.15;;;8.63;;
37157;SDS011;23050;51.776;22.638;2023-02-05T05:48:29;13.45;;;6.18;;
37157;SDS011;23050;51.776;22.638;2023-02-05T05:50:55;20.80;;;8.40;;
37157;SDS011;23050;51.776;22.638;2023-02-05T05:53:21;19.42;;;7.80;;
37157;SDS011;23050;51.776;22.638;2023-02-05T05:55:46;19.75;;;9.02;;
37157;SDS011;23050;51.776;22.638;2023-02-05T05:58:12;21.08;;;8.80;;
37157;SDS011;23050;51.776;22.638;2023-02-05T06:00:38;15.30;;;8.02;;
37157;SDS011;23050;51.776;22.638;2023-02-05T06:03:05;15.13;;;7.90;;
37157;SDS011;23050;51.776;22.638;2023-02-05T06:05:31;15.60;;;8.93;;
37157;SDS011;23050;51.776;22.638;2023-02-05T06:07:56;14.93;;;8.25;;
37157;SDS011;23050;51.776;22.638;2023-02-05T06:10:22;15.60;;;8.60;;
37157;SDS011;23050;51.776;22.638;2023-02-05T06:12:48;20.90;;;10.55;;
37157;SDS011;23050;51.776;22.638;2023-02-05T06:15:14;24.90;;;13.65;;
37157;SDS011;23050;51.776;22.638;2023-02-05T06:17:40;15.48;;;7.45;;
37157;SDS011;23050;51.776;22.638;2023-02-05T06:20:06;19.35;;;9.20;;
37157;SDS011;23050;51.776;22.638;2023-02-05T06:22:32;25.60;;;11.35;;
37157;SDS011;23050;51.776;22.638;2023-02-05T06:24:57;24.35;;;12.95;;
37157;SDS011;23050;51.776;22.638;2023-02-05T06:27:23;26.67;;;14.90;;
37157;SDS011;23050;51.776;22.638;2023-02-05T06:29:48;20.23;;;11.30;;
37157;SDS011;23050;51.776;22.638;2023-02-05T06:32:14;17.00;;;10.20;;
37157;SDS011;23050;51.776;22.638;2023-02-05T06:34:39;16.90;;;8.30;;
37157;SDS011;23050;51.776;22.638;2023-02-05T06:37:05;23.50;;;11.50;;
37157;SDS011;23050;51.776;22.638;2023-02-05T06:39:31;17.08;;;9.02;;
37157;SDS011;23050;51.776;22.638;2023-02-05T06:41:57;21.30;;;12.00;;
37157;SDS011;23050;51.776;22.638;2023-02-05T06:44:22;13.65;;;8.85;;
37157;SDS011;23050;51.776;22.638;2023-02-05T06:46:48;20.42;;;10.60;;
37157;SDS011;23050;51.776;22.638;2023-02-05T06:49:13;31.05;;;14.77;;
37157;SDS011;23050;51.776;22.638;2023-02-05T06:51:39;42.08;;;21.77;;
37157;SDS011;23050;51.776;22.638;2023-02-05T06:54:05;16.83;;;9.05;;
37157;SDS011;23050;51.776;22.638;2023-02-05T06:56:30;27.85;;;11.55;;
37157;SDS011;23050;51.776;22.638;2023-02-05T06:58:56;25.05;;;13.25;;
37157;SDS011;23050;51.776;22.638;2023-02-05T07:01:21;56.58;;;22.95;;
37157;SDS011;23050;51.776;22.638;2023-02-05T07:03:47;38.60;;;17.35;;
37157;SDS011;23050;51.776;22.638;2023-02-05T07:06:13;55.05;;;22.42;;
37157;SDS011;23050;51.776;22.638;2023-02-05T07:08:38;42.30;;;18.75;;
37157;SDS011;23050;51.776;22.638;2023-02-05T07:11:04;40.58;;;18.17;;
37157;SDS011;23050;51.776;22.638;2023-02-05T07:13:30;55.17;;;23.25;;
37157;SDS011;23050;51.776;22.638;2023-02-05T07:15:55;39.33;;;20.15;;
37157;SDS011;23050;51.776;22.638;2023-02-05T07:18:21;29.55;;;14.18;;
37157;SDS011;23050;51.776;22.638;2023-02-05T07:20:48;28.75;;;13.15;;
37157;SDS011;23050;51.776;22.638;2023-02-05T07:23:13;32.88;;;15.27;;
37157;SDS011;23050;51.776;22.638;2023-02-05T07:25:39;34.78;;;15.95;;
37157;SDS011;23050;51.776;22.638;2023-02-05T07:28:05;29.85;;;13.65;;
37157;SDS011;23050;51.776;22.638;2023-02-05T07:30:32;34.45;;;16.55;;
37157;SDS011;23050;51.776;22.638;2023-02-05T07:32:59;73.22;;;28.98;;
37157;SDS011;23050;51.776;22.638;2023-02-05T07:35:25;99.72;;;37.92;;
37157;SDS011;23050;51.776;22.638;2023-02-05T07:37:51;65.55;;;27.30;;
37157;SDS011;23050;51.776;22.638;2023-02-05T07:40:16;100.45;;;35.20;;
37157;SDS011;23050;51.776;22.638;2023-02-05T07:42:42;130.07;;;43.30;;
37157;SDS011;23050;51.776;22.638;2023-02-05T07:45:07;140.02;;;48.42;;
37157;SDS011;23050;51.776;22.638;2023-02-05T07:47:33;65.38;;;26.63;;
37157;SDS011;23050;51.776;22.638;2023-02-05T07:49:59;55.20;;;23.92;;
37157;SDS011;23050;51.776;22.638;2023-02-05T07:52:24;119.00;;;28.67;;
37157;SDS011;23050;51.776;22.638;2023-02-05T07:54:50;49.92;;;17.58;;
37157;SDS011;23050;51.776;22.638;2023-02-05T07:57:15;44.88;;;15.82;;
37157;SDS011;23050;51.776;22.638;2023-02-05T07:59:41;57.92;;;18.20;;
37157;SDS011;23050;51.776;22.638;2023-02-05T08:02:08;30.65;;;11.98;;
37157;SDS011;23050;51.776;22.638;2023-02-05T08:04:34;67.45;;;21.88;;
37157;SDS011;23050;51.776;22.638;2023-02-05T08:07:00;58.80;;;35.75;;
37157;SDS011;23050;51.776;22.638;2023-02-05T08:09:25;58.50;;;20.15;;
37157;SDS011;23050;51.776;22.638;2023-02-05T08:11:51;21.92;;;9.75;;
37157;SDS011;23050;51.776;22.638;2023-02-05T08:14:17;20.17;;;10.10;;
37157;SDS011;23050;51.776;22.638;2023-02-05T08:16:42;31.58;;;11.65;;
37157;SDS011;23050;51.776;22.638;2023-02-05T08:19:09;42.08;;;14.38;;
37157;SDS011;23050;51.776;22.638;2023-02-05T08:21:42;32.38;;;13.02;;
37157;SDS011;23050;51.776;22.638;2023-02-05T08:24:08;25.15;;;11.07;;
37157;SDS011;23050;51.776;22.638;2023-02-05T08:26:34;36.35;;;14.15;;
37157;SDS011;23050;51.776;22.638;2023-02-05T08:29:00;32.72;;;12.43;;
37157;SDS011;23050;51.776;22.638;2023-02-05T08:31:26;57.65;;;22.65;;
37157;SDS011;23050;51.776;22.638;2023-02-05T08:33:52;34.20;;;17.00;;
37157;SDS011;23050;51.776;22.638;2023-02-05T08:36:20;36.40;;;15.73;;
37157;SDS011;23050;51.776;22.638;2023-02-05T08:38:46;39.40;;;15.82;;
37157;SDS011;23050;51.776;22.638;2023-02-05T08:41:12;32.22;;;20.20;;
37157;SDS011;23050;51.776;22.638;2023-02-05T08:43:45;24.33;;;12.13;;
37157;SDS011;23050;51.776;22.638;2023-02-05T08:46:13;43.22;;;14.68;;
37157;SDS011;23050;51.776;22.638;2023-02-05T08:48:40;39.50;;;15.82;;
37157;SDS011;23050;51.776;22.638;2023-02-05T08:51:08;29.15;;;11.95;;
37157;SDS011;23050;51.776;22.638;2023-02-05T08:53:34;13.88;;;7.25;;
37157;SDS011;23050;51.776;22.638;2023-02-05T08:56:00;21.73;;;11.40;;
37157;SDS011;23050;51.776;22.638;2023-02-05T08:58:27;15.85;;;7.75;;
37157;SDS011;23050;51.776;22.638;2023-02-05T09:01:07;12.57;;;7.15;;
37157;SDS011;23050;51.776;22.638;2023-02-05T09:03:37;12.82;;;9.73;;
37157;SDS011;23050;51.776;22.638;2023-02-05T09:06:04;18.67;;;10.23;;
37157;SDS011;23050;51.776;22.638;2023-02-05T09:08:31;16.83;;;9.45;;
37157;SDS011;23050;51.776;22.638;2023-02-05T09:10:57;16.98;;;9.38;;
37157;SDS011;23050;51.776;22.638;2023-02-05T09:13:23;12.45;;;7.32;;
37157;SDS011;23050;51.776;22.638;2023-02-05T09:15:49;18.55;;;10.23;;
37157;SDS011;23050;51.776;22.638;2023-02-05T09:18:15;19.48;;;10.25;;
37157;SDS011;23050;51.776;22.638;2023-02-05T09:20:41;23.23;;;12.85;;
37157;SDS011;23050;51.776;22.638;2023-02-05T09:23:09;40.90;;;19.85;;
37157;SDS011;23050;51.776;22.638;2023-02-05T09:25:39;141.82;;;69.90;;
37157;SDS011;23050;51.776;22.638;2023-02-05T09:28:05;112.72;;;55.90;;
37157;SDS011;23050;51.776;22.638;2023-02-05T09:30:37;98.85;;;44.90;;
37157;SDS011;23050;51.776;22.638;2023-02-05T09:33:03;77.95;;;34.15;;
37157;SDS011;23050;51.776;22.638;2023-02-05T09:35:30;103.43;;;43.30;;
37157;SDS011;23050;51.776;22.638;2023-02-05T09:37:56;313.75;;;135.73;;
37157;SDS011;23050;51.776;22.638;2023-02-05T09:40:23;75.43;;;31.55;;
37157;SDS011;23050;51.776;22.638;2023-02-05T09:45:44;61.58;;;25.15;;
37157;SDS011;23050;51.776;22.638;2023-02-05T09:48:19;38.22;;;16.92;;
37157;SDS011;23050;51.776;22.638;2023-02-05T09:51:00;88.70;;;43.00;;
37157;SDS011;23050;51.776;22.638;2023-02-05T09:53:27;78.75;;;36.83;;
37157;SDS011;23050;51.776;22.638;2023-02-05T09:55:59;117.28;;;54.33;;
37157;SDS011;23050;51.776;22.638;2023-02-05T09:58:29;85.80;;;36.25;;
37157;SDS011;23050;51.776;22.638;2023-02-05T10:03:42;454.13;;;186.50;;
37157;SDS011;23050;51.776;22.638;2023-02-05T10:20:11;50.50;;;22.08;;
37157;SDS011;23050;51.776;22.638;2023-02-05T10:33:53;50.40;;;18.83;;
37157;SDS011;23050;51.776;22.638;2023-02-05T10:36:34;51.80;;;19.00;;
37157;SDS011;23050;51.776;22.638;2023-02-05T10:39:01;42.50;;;19.90;;
37157;SDS011;23050;51.776;22.638;2023-02-05T10:41:35;43.80;;;16.00;;
37157;SDS011;23050;51.776;22.638;2023-02-05T10:46:47;70.72;;;25.63;;
37157;SDS011;23050;51.776;22.638;2023-02-05T10:49:20;64.38;;;25.75;;
37157;SDS011;23050;51.776;22.638;2023-02-05T10:51:47;62.67;;;22.65;;
37157;SDS011;23050;51.776;22.638;2023-02-05T10:54:17;39.67;;;16.33;;
37157;SDS011;23050;51.776;22.638;2023-02-05T10:56:49;60.35;;;22.58;;
37157;SDS011;23050;51.776;22.638;2023-02-05T10:59:25;55.60;;;20.35;;
37157;SDS011;23050;51.776;22.638;2023-02-05T11:01:56;84.40;;;31.77;;
37157;SDS011;23050;51.776;22.638;2023-02-05T11:04:30;71.30;;;25.00;;
37157;SDS011;23050;51.776;22.638;2023-02-05T11:06:58;52.80;;;21.27;;
37157;SDS011;23050;51.776;22.638;2023-02-05T11:11:56;30.42;;;13.68;;
37157;SDS011;23050;51.776;22.638;2023-02-05T11:14:44;18.60;;;9.50;;
37157;SDS011;23050;51.776;22.638;2023-02-05T11:17:20;30.02;;;12.95;;
37157;SDS011;23050;51.776;22.638;2023-02-05T11:19:51;41.80;;;15.80;;
37157;SDS011;23050;51.776;22.638;2023-02-05T11:22:28;57.05;;;24.65;;
37157;SDS011;23050;51.776;22.638;2023-02-05T11:25:04;43.70;;;15.18;;
37157;SDS011;23050;51.776;22.638;2023-02-05T11:28:00;65.30;;;22.42;;
37157;SDS011;23050;51.776;22.638;2023-02-05T11:30:31;49.97;;;20.90;;
37157;SDS011;23050;51.776;22.638;2023-02-05T11:35:55;55.20;;;23.10;;
37157;SDS011;23050;51.776;22.638;2023-02-05T11:44:19;22.20;;;12.13;;
37157;SDS011;23050;51.776;22.638;2023-02-05T11:46:50;18.83;;;10.75;;
37157;SDS011;23050;51.776;22.638;2023-02-05T11:49:22;33.90;;;17.15;;
37157;SDS011;23050;51.776;22.638;2023-02-05T11:51:53;22.63;;;11.50;;
37157;SDS011;23050;51.776;22.638;2023-02-05T12:00:01;47.38;;;21.77;;
37157;SDS011;23050;51.776;22.638;2023-02-05T12:02:45;63.40;;;23.60;;
37157;SDS011;23050;51.776;22.638;2023-02-05T12:07:50;85.32;;;26.80;;
37157;SDS011;23050;51.776;22.638;2023-02-05T12:15:26;44.70;;;19.50;;
37157;SDS011;23050;51.776;22.638;2023-02-05T12:18:00;36.88;;;17.73;;
37157;SDS011;23050;51.776;22.638;2023-02-05T12:20:42;36.88;;;18.90;;
37157;SDS011;23050;51.776;22.638;2023-02-05T12:28:50;57.13;;;24.13;;
37157;SDS011;23050;51.776;22.638;2023-02-05T12:36:36;45.28;;;19.20;;
37157;SDS011;23050;51.776;22.638;2023-02-05T12:42:23;27.00;;;13.63;;
37157;SDS011;23050;51.776;22.638;2023-02-05T12:50:46;23.63;;;11.93;;
37157;SDS011;23050;51.776;22.638;2023-02-05T12:56:18;22.33;;;9.60;;
37157;SDS011;23050;51.776;22.638;2023-02-05T12:58:49;19.85;;;8.05;;
37157;SDS011;23050;51.776;22.638;2023-02-05T13:01:54;20.70;;;9.00;;
37157;SDS011;23050;51.776;22.638;2023-02-05T13:04:26;27.20;;;10.70;;
37157;SDS011;23050;51.776;22.638;2023-02-05T13:12:50;40.17;;;15.00;;
37157;SDS011;23050;51.776;22.638;2023-02-05T13:15:26;34.30;;;12.23;;
37157;SDS011;23050;51.776;22.638;2023-02-05T13:18:06;47.10;;;19.83;;
37157;SDS011;23050;51.776;22.638;2023-02-05T13:20:44;47.95;;;17.25;;
37157;SDS011;23050;51.776;22.638;2023-02-05T13:23:42;35.05;;;13.20;;
37157;SDS011;23050;51.776;22.638;2023-02-05T13:26:37;23.63;;;10.13;;
37157;SDS011;23050;51.776;22.638;2023-02-05T13:29:26;49.25;;;19.92;;
37157;SDS011;23050;51.776;22.638;2023-02-05T13:32:00;49.80;;;18.80;;
37157;SDS011;23050;51.776;22.638;2023-02-05T13:34:28;42.10;;;17.50;;
37157;SDS011;23050;51.776;22.638;2023-02-05T13:48:11;21.23;;;9.82;;
37157;SDS011;23050;51.776;22.638;2023-02-05T14:00:03;62.70;;;23.58;;
37157;SDS011;23050;51.776;22.638;2023-02-05T14:05:11;30.90;;;15.18;;
37157;SDS011;23050;51.776;22.638;2023-02-05T14:07:42;41.45;;;17.58;;
37157;SDS011;23050;51.776;22.638;2023-02-05T14:10:26;36.85;;;16.75;;
37157;SDS011;23050;51.776;22.638;2023-02-05T14:15:49;60.97;;;21.75;;
37157;SDS011;23050;51.776;22.638;2023-02-05T14:21:46;67.00;;;23.73;;
37157;SDS011;23050;51.776;22.638;2023-02-05T14:24:03;53.95;;;20.90;;
37157;SDS011;23050;51.776;22.638;2023-02-05T14:27:18;48.45;;;21.02;;
37157;SDS011;23050;51.776;22.638;2023-02-05T14:33:24;61.42;;;21.15;;
37157;SDS011;23050;51.776;22.638;2023-02-05T14:35:56;50.90;;;19.67;;
37157;SDS011;23050;51.776;22.638;2023-02-05T14:38:52;42.42;;;16.42;;
37157;SDS011;23050;51.776;22.638;2023-02-05T14:41:26;43.72;;;16.77;;
37157;SDS011;23050;51.776;22.638;2023-02-05T14:46:37;49.88;;;18.33;;
37157;SDS011;23050;51.776;22.638;2023-02-05T14:49:57;47.75;;;16.77;;
37157;SDS011;23050;51.776;22.638;2023-02-05T14:57:46;52.85;;;20.42;;
37157;SDS011;23050;51.776;22.638;2023-02-05T15:00:39;42.42;;;16.17;;
37157;SDS011;23050;51.776;22.638;2023-02-05T15:03:11;36.97;;;16.42;;
37157;SDS011;23050;51.776;22.638;2023-02-05T15:06:25;73.55;;;26.73;;
37157;SDS011;23050;51.776;22.638;2023-02-05T15:08:51;79.97;;;28.95;;
37157;SDS011;23050;51.776;22.638;2023-02-05T15:11:32;66.40;;;25.15;;
37157;SDS011;23050;51.776;22.638;2023-02-05T15:17:34;42.55;;;17.27;;
37157;SDS011;23050;51.776;22.638;2023-02-05T15:19:59;44.15;;;17.73;;
37157;SDS011;23050;51.776;22.638;2023-02-05T15:22:53;63.60;;;23.70;;
37157;SDS011;23050;51.776;22.638;2023-02-05T15:36:52;150.63;;;54.38;;
37157;SDS011;23050;51.776;22.638;2023-02-05T15:42:14;105.43;;;43.90;;
37157;SDS011;23050;51.776;22.638;2023-02-05T15:44:43;113.90;;;47.25;;
37157;SDS011;23050;51.776;22.638;2023-02-05T15:47:14;103.68;;;38.45;;
37157;SDS011;23050;51.776;22.638;2023-02-05T15:49:47;100.75;;;31.48;;
37157;SDS011;23050;51.776;22.638;2023-02-05T15:54:49;84.07;;;25.83;;
37157;SDS011;23050;51.776;22.638;2023-02-05T15:57:18;184.82;;;51.58;;
37157;SDS011;23050;51.776;22.638;2023-02-05T15:59:47;112.93;;;36.72;;
37157;SDS011;23050;51.776;22.638;2023-02-05T16:02:21;74.82;;;25.13;;
37157;SDS011;23050;51.776;22.638;2023-02-05T16:04:56;109.22;;;35.72;;
37157;SDS011;23050;51.776;22.638;2023-02-05T16:07:43;97.38;;;31.08;;
37157;SDS011;23050;51.776;22.638;2023-02-05T16:15:31;83.55;;;28.55;;
37157;SDS011;23050;51.776;22.638;2023-02-05T16:18:05;112.25;;;36.13;;
37157;SDS011;23050;51.776;22.638;2023-02-05T16:20:38;91.45;;;28.83;;
37157;SDS011;23050;51.776;22.638;2023-02-05T16:23:09;71.95;;;27.45;;
37157;SDS011;23050;51.776;22.638;2023-02-05T16:28:40;109.15;;;37.47;;
37157;SDS011;23050;51.776;22.638;2023-02-05T16:31:16;146.32;;;50.28;;
37157;SDS011;23050;51.776;22.638;2023-02-05T16:33:49;182.57;;;70.65;;
37157;SDS011;23050;51.776;22.638;2023-02-05T16:36:23;169.15;;;60.67;;
37157;SDS011;23050;51.776;22.638;2023-02-05T16:38:58;116.05;;;42.38;;
37157;SDS011;23050;51.776;22.638;2023-02-05T16:41:30;107.72;;;38.13;;
37157;SDS011;23050;51.776;22.638;2023-02-05T16:44:01;127.97;;;40.80;;
37157;SDS011;23050;51.776;22.638;2023-02-05T16:46:30;110.60;;;35.00;;
37157;SDS011;23050;51.776;22.638;2023-02-05T16:49:00;127.22;;;48.22;;
37157;SDS011;23050;51.776;22.638;2023-02-05T16:56:38;135.48;;;46.67;;
37157;SDS011;23050;51.776;22.638;2023-02-05T16:59:21;175.32;;;62.38;;
37157;SDS011;23050;51.776;22.638;2023-02-05T17:01:49;189.60;;;71.80;;
37157;SDS011;23050;51.776;22.638;2023-02-05T17:06:53;137.35;;;51.33;;
37157;SDS011;23050;51.776;22.638;2023-02-05T17:09:29;133.07;;;48.78;;
37157;SDS011;23050;51.776;22.638;2023-02-05T17:14:51;115.50;;;41.72;;
37157;SDS011;23050;51.776;22.638;2023-02-05T17:17:19;105.90;;;39.28;;
37157;SDS011;23050;51.776;22.638;2023-02-05T17:20:02;146.57;;;51.38;;
37157;SDS011;23050;51.776;22.638;2023-02-05T17:28:20;227.90;;;92.57;;
37157;SDS011;23050;51.776;22.638;2023-02-05T17:30:50;137.38;;;48.53;;
37157;SDS011;23050;51.776;22.638;2023-02-05T17:33:22;208.00;;;76.80;;
37157;SDS011;23050;51.776;22.638;2023-02-05T17:35:49;194.55;;;76.85;;
37157;SDS011;23050;51.776;22.638;2023-02-05T17:38:15;238.15;;;96.63;;
37157;SDS011;23050;51.776;22.638;2023-02-05T17:40:41;228.45;;;87.05;;
37157;SDS011;23050;51.776;22.638;2023-02-05T17:43:08;148.52;;;50.92;;
37157;SDS011;23050;51.776;22.638;2023-02-05T17:45:34;204.90;;;70.60;;
37157;SDS011;23050;51.776;22.638;2023-02-05T17:48:03;160.65;;;61.20;;
37157;SDS011;23050;51.776;22.638;2023-02-05T17:50:29;196.18;;;72.45;;
37157;SDS011;23050;51.776;22.638;2023-02-05T17:52:58;186.27;;;64.07;;
37157;SDS011;23050;51.776;22.638;2023-02-05T17:55:24;112.68;;;43.85;;